Time;durP1;ratioP1;P1;durP2;ratioP2;P2;SDS_P1;SDS_P2;PMS_P1;PMS_P2;Temp;Humidity;BMP_temperature;BMP_pressure;BME280_temperature;BME280_humidity;BME280_pressure;Samples;Min_cycle;Max_cycle;Signal;HPM_P1;HPM_P2
2023/08/04 00:01:52;;;;;;;15.18;12.18;;;;;;;23.98;100.00;97025.78;5069976;28;20111;-77
2023/08/04 00:04:19;;;;;;;14.35;11.32;;;;;;;23.90;100.00;97012.25;5070049;28;20064;-76
2023/08/04 00:06:44;;;;;;;15.80;11.70;;;;;;;23.93;100.00;97020.06;5051855;28;20032;-76
2023/08/04 00:09:10;;;;;;;16.60;12.50;;;;;;;23.90;100.00;97012.25;5071230;28;20028;-76
2023/08/04 00:11:35;;;;;;;15.00;12.02;;;;;;;23.93;100.00;97016.47;5051770;28;20029;-77
2023/08/04 00:14:01;;;;;;;22.45;12.43;;;;;;;23.84;100.00;97012.97;5069966;28;20107;-76
2023/08/04 00:16:26;;;;;;;17.92;12.35;;;;;;;23.87;100.00;97018.06;5070315;28;20025;-76
2023/08/04 00:18:52;;;;;;;16.52;12.05;;;;;;;23.83;100.00;97029.59;5051972;28;20020;-77
2023/08/04 00:21:17;;;;;;;17.45;12.50;;;;;;;23.79;100.00;97023.66;5052344;28;20047;-77
2023/08/04 00:23:43;;;;;;;15.48;11.55;;;;;;;23.78;100.00;97024.66;5052087;28;20024;-77
2023/08/04 00:26:08;;;;;;;17.77;12.13;;;;;;;23.75;100.00;97016.84;5069686;28;20027;-77
2023/08/04 00:28:33;;;;;;;15.73;12.90;;;;;;;23.80;100.00;97025.34;5052181;28;20538;-77
2023/08/04 00:30:59;;;;;;;18.05;13.05;;;;;;;23.79;100.00;97020.91;5051706;28;20024;-76
2023/08/04 00:33:24;;;;;;;21.95;13.00;;;;;;;23.81;100.00;97027.03;5070787;28;20426;-76
2023/08/04 00:35:50;;;;;;;17.00;12.02;;;;;;;23.69;100.00;97012.16;5069631;28;20111;-77
2023/08/04 00:38:15;;;;;;;17.10;12.27;;;;;;;23.70;100.00;97024.78;5069758;28;20045;-77
2023/08/04 00:40:41;;;;;;;17.23;12.13;;;;;;;23.71;100.00;97021.03;5063173;28;20021;-77
2023/08/04 00:43:07;;;;;;;15.85;12.40;;;;;;;23.61;100.00;97013.13;5033565;28;20039;-76
2023/08/04 00:45:33;;;;;;;19.35;11.80;;;;;;;23.57;100.00;97022.72;5038563;28;20048;-76
2023/08/04 00:48:00;;;;;;;15.38;12.02;;;;;;;23.46;100.00;97012.28;5053253;28;20051;-76
2023/08/04 00:50:25;;;;;;;19.90;12.90;;;;;;;23.41;100.00;97014.72;5070952;28;20025;-76
2023/08/04 00:52:51;;;;;;;13.73;11.50;;;;;;;23.36;100.00;97011.66;5039190;28;20024;-76
2023/08/04 00:55:17;;;;;;;17.73;12.88;;;;;;;23.37;100.00;97012.53;5018643;28;20029;-77
2023/08/04 00:57:43;;;;;;;18.75;11.77;;;;;;;23.38;100.00;97015.06;5061930;28;20044;-77
2023/08/04 01:00:09;;;;;;;22.92;12.90;;;;;;;23.43;100.00;97014.53;5055046;28;20099;-76
2023/08/04 01:02:35;;;;;;;16.25;12.70;;;;;;;23.39;100.00;97016.78;5050140;28;20041;-77
2023/08/04 01:05:01;;;;;;;18.05;12.90;;;;;;;23.38;100.00;97016.97;5026729;28;20452;-74
2023/08/04 01:07:56;;;;;;;18.65;12.93;;;;;;;23.39;100.00;97011.31;5035017;28;20032;-76
2023/08/04 01:10:29;;;;;;;16.92;13.00;;;;;;;23.38;100.00;97016.97;5042479;28;20021;-76
2023/08/04 01:13:03;;;;;;;15.90;12.57;;;;;;;23.36;100.00;97008.94;5065829;28;20396;-76
2023/08/04 01:15:29;;;;;;;18.13;12.93;;;;;;;23.33;100.00;97006.59;5037017;28;20028;-76
2023/08/04 01:17:55;;;;;;;18.92;12.50;;;;;;;23.33;100.00;97016.66;5037603;28;20029;-76
2023/08/04 01:20:22;;;;;;;16.73;12.15;;;;;;;23.33;100.00;97006.59;5034855;28;20025;-76
2023/08/04 01:22:48;;;;;;;16.42;12.90;;;;;;;23.31;100.00;97003.22;5052388;28;20468;-76
2023/08/04 01:25:13;;;;;;;15.00;12.05;;;;;;;23.29;100.00;97010.72;5052501;28;20025;-75
2023/08/04 01:27:49;;;;;;;17.30;11.90;;;;;;;23.20;100.00;97011.84;5042065;28;20024;-76
2023/08/04 01:30:18;;;;;;;15.77;12.00;;;;;;;23.15;100.00;97011.56;5053472;28;20021;-76
2023/08/04 01:32:44;;;;;;;17.85;12.10;;;;;;;23.13;100.00;97009.00;5035968;28;20405;-76
2023/08/04 01:35:09;;;;;;;19.13;12.07;;;;;;;23.11;100.00;96997.44;5032078;28;20058;-76
2023/08/04 01:37:35;;;;;;;14.27;11.43;;;;;;;23.04;100.00;97006.56;5050389;28;20060;-76
2023/08/04 01:40:01;;;;;;;15.80;12.35;;;;;;;23.04;100.00;97007.41;5041485;28;20452;-76
2023/08/04 01:42:26;;;;;;;15.63;11.90;;;;;;;23.05;100.00;97009.09;5055667;28;20033;-76
2023/08/04 01:44:52;;;;;;;24.55;12.40;;;;;;;22.96;100.00;96999.31;5048391;28;20032;-77
2023/08/04 01:47:17;;;;;;;18.83;12.50;;;;;;;22.98;100.00;97012.78;5065068;28;20028;-76
2023/08/04 01:49:43;;;;;;;15.60;12.23;;;;;;;22.96;100.00;97014.81;5053755;28;20080;-77
2023/08/04 01:52:08;;;;;;;19.45;13.30;;;;;;;22.98;100.00;97019.03;5065153;28;20020;-76
2023/08/04 01:54:34;;;;;;;23.20;13.35;;;;;;;22.96;100.00;97021.13;5051111;28;20400;-76
2023/08/04 01:56:59;;;;;;;19.27;12.90;;;;;;;22.98;100.00;97024.50;5051914;28;20087;-76
2023/08/04 01:59:25;;;;;;;18.50;13.27;;;;;;;22.98;100.00;97012.78;5042534;28;20039;-76
2023/08/04 02:01:50;;;;;;;17.10;13.15;;;;;;;22.95;100.00;97016.69;5046076;28;20026;-76
2023/08/04 02:04:16;;;;;;;20.25;13.93;;;;;;;22.90;100.00;97021.00;5045597;28;20382;-76
2023/08/04 02:06:41;;;;;;;20.17;13.60;;;;;;;22.92;100.00;97029.84;5053683;28;20078;-76
2023/08/04 02:09:07;;;;;;;22.85;13.85;;;;;;;22.92;100.00;97030.69;5053937;28;20024;-76
2023/08/04 02:11:33;;;;;;;16.60;13.38;;;;;;;22.90;100.00;97032.78;5071252;28;20488;-75
2023/08/04 02:13:59;;;;;;;20.20;14.05;;;;;;;22.77;100.00;97032.53;5045289;28;20020;-76
2023/08/04 02:16:24;;;;;;;17.88;13.82;;;;;;;22.76;100.00;97036.31;5044470;28;20111;-77
2023/08/04 02:18:50;;;;;;;20.80;13.00;;;;;;;22.78;100.00;97036.97;5052722;28;20098;-76
2023/08/04 02:21:15;;;;;;;34.38;13.05;;;;;;;22.72;100.00;97039.59;5030230;28;20031;-76
2023/08/04 02:23:41;;;;;;;22.05;13.40;;;;;;;22.65;100.00;97040.31;5068657;28;20586;-76
2023/08/04 02:26:06;;;;;;;19.35;13.48;;;;;;;22.58;100.00;97038.44;5066077;28;20111;-76
2023/08/04 02:28:32;;;;;;;18.98;13.02;;;;;;;22.42;100.00;97028.53;5071098;28;20044;-76
2023/08/04 02:31:00;;;;;;;18.73;13.57;;;;;;;22.42;100.00;97042.19;5041307;28;20491;-76
2023/08/04 02:33:26;;;;;;;18.10;13.23;;;;;;;22.47;100.00;97038.88;5057480;28;20028;-75
2023/08/04 02:36:01;;;;;;;19.75;12.68;;;;;;;22.44;100.00;97047.44;5042634;28;20063;-76
2023/08/04 02:38:27;;;;;;;16.88;13.30;;;;;;;22.38;100.00;97043.56;5063819;28;20055;-76
2023/08/04 02:40:53;;;;;;;22.42;13.40;;;;;;;22.35;100.00;97052.09;5071134;28;20103;-75
2023/08/04 02:43:18;;;;;;;20.10;14.45;;;;;;;22.27;100.00;97046.69;5053148;28;20024;-76
2023/08/04 02:45:50;;;;;;;22.52;15.02;;;;;;;22.26;100.00;97049.59;5070778;28;20192;-76
2023/08/04 02:48:15;;;;;;;19.95;14.68;;;;;;;;;;5036461;28;20079;-76
2023/08/04 02:50:41;;;;;;;19.00;13.80;;;;;;;22.20;100.00;97053.03;5052669;28;20446;-76
2023/08/04 02:53:06;;;;;;;22.70;14.82;;;;;;;22.23;100.00;97058.97;5070858;28;20086;-76
2023/08/04 02:55:32;;;;;;;21.30;14.18;;;;;;;22.17;100.00;97046.06;5053005;28;20028;-76
2023/08/04 02:57:57;;;;;;;26.92;15.15;;;;;;;22.14;100.00;97055.47;5070815;28;20108;-76
2023/08/04 03:00:24;;;;;;;21.38;14.98;;;;;;;22.19;100.00;97064.97;5070957;28;20137;-76
2023/08/04 03:02:49;;;;;;;23.13;15.45;;;;;;;22.14;100.00;97066.38;5054834;28;20114;-76
2023/08/04 03:05:15;;;;;;;28.13;15.05;;;;;;;22.12;100.00;97073.00;5052181;28;20127;-76
2023/08/04 03:07:40;;;;;;;27.30;16.25;;;;;;;22.06;100.00;97058.22;5052812;28;20027;-77
2023/08/04 03:10:06;;;;;;;35.95;18.15;;;;;;;22.14;100.00;97069.09;5070372;28;20025;-76
2023/08/04 03:12:32;;;;;;;31.48;18.35;;;;;;;22.14;100.00;97062.78;5052582;28;20047;-77
2023/08/04 03:14:57;;;;;;;41.08;17.88;;;;;;;22.14;100.00;97065.50;5070260;28;20021;-76
2023/08/04 03:17:23;;;;;;;26.60;16.33;;;;;;;22.12;100.00;97060.22;5070411;28;20028;-77
2023/08/04 03:19:48;;;;;;;27.10;15.82;;;;;;;22.05;100.00;97052.97;5070401;28;20025;-76
2023/08/04 03:22:14;;;;;;;28.02;15.20;;;;;;;22.00;100.00;97056.19;5070527;28;20358;-76
2023/08/04 03:24:40;;;;;;;20.50;14.18;;;;;;;21.95;100.00;97055.91;5070400;28;20162;-76
2023/08/04 03:27:06;;;;;;;20.52;14.15;;;;;;;21.87;100.00;97055.88;5070240;28;20157;-77
2023/08/04 03:29:31;;;;;;;25.50;14.68;;;;;;;21.83;100.00;97054.56;5052764;28;20495;-76
2023/08/04 03:31:57;;;;;;;28.15;14.68;;;;;;;21.87;100.00;97058.59;5054916;28;20017;-76
2023/08/04 03:34:22;;;;;;;32.13;15.30;;;;;;;21.99;100.00;97067.28;5071505;28;20492;-76
2023/08/04 03:36:48;;;;;;;25.23;14.65;;;;;;;21.99;100.00;97054.53;5071126;28;20021;-76
2023/08/04 03:39:13;;;;;;;22.13;14.65;;;;;;;22.03;100.00;97058.56;5069540;28;20473;-76
2023/08/04 03:41:39;;;;;;;20.73;14.18;;;;;;;22.01;100.00;97051.63;5070065;28;20024;-76
2023/08/04 03:44:04;;;;;;;22.73;14.93;;;;;;;22.09;100.00;97052.41;5069949;28;20112;-75
2023/08/04 03:46:30;;;;;;;27.55;14.02;;;;;;;22.11;100.00;97054.97;5070319;28;20025;-76
2023/08/04 03:48:55;;;;;;;27.63;14.20;;;;;;;22.16;100.00;97044.38;5052241;28;20380;-73
2023/08/04 03:51:22;;;;;;;30.42;15.90;;;;;;;22.30;100.00;97053.66;5070298;28;20020;-76
2023/08/04 03:53:48;;;;;;;33.63;15.18;;;;;;;22.31;100.00;97049.91;5070205;28;20027;-75
2023/08/04 03:56:14;;;;;;;25.85;15.13;;;;;;;22.35;100.00;97053.97;5052359;28;20025;-76
2023/08/04 03:58:39;;;;;;;25.38;14.10;;;;;;;22.41;100.00;97050.53;5052321;28;20023;-76
2023/08/04 04:01:05;;;;;;;19.05;13.68;;;;;;;22.42;100.00;97050.34;5071792;28;20078;-76
2023/08/04 04:03:30;;;;;;;24.80;14.15;;;;;;;22.48;100.00;97048.78;5035447;28;20028;-76
2023/08/04 04:05:56;;;;;;;46.70;15.55;;;;;;;22.40;100.00;97048.81;5051804;28;20098;-76
2023/08/04 04:08:21;;;;;;;23.73;14.13;;;;;;;22.45;100.00;97046.41;5035168;28;20059;-76
2023/08/04 04:10:50;;;;;;;22.55;13.55;;;;;;;22.46;100.00;97051.66;5052235;28;20016;-77
2023/08/04 04:13:15;;;;;;;56.38;15.43;;;;;;;22.49;100.00;97045.00;5070341;28;20034;-74
2023/08/04 04:15:43;;;;;;;29.00;13.68;;;;;;;22.51;100.00;97053.88;5069894;28;20020;-77
2023/08/04 04:18:09;;;;;;;29.23;13.60;;;;;;;22.60;100.00;97053.63;5054373;28;20048;-76
2023/08/04 04:20:34;;;;;;;30.17;14.10;;;;;;;22.60;100.00;97044.59;5055481;28;20056;-76
2023/08/04 04:23:00;;;;;;;42.28;14.48;;;;;;;22.68;100.00;97050.00;5055914;28;20078;-76
2023/08/04 04:25:25;;;;;;;30.58;15.02;;;;;;;22.78;100.00;97057.94;5038645;28;20056;-74
2023/08/04 04:27:51;;;;;;;25.55;14.45;;;;;;;22.95;100.00;97052.16;5055643;28;20050;-76
2023/08/04 04:30:16;;;;;;;26.17;14.77;;;;;;;23.25;100.00;97046.78;5075873;28;20404;-75
2023/08/04 04:32:42;;;;;;;21.15;13.40;;;;;;;23.79;100.00;97047.38;5066764;28;20030;-75
2023/08/04 04:35:08;;;;;;;20.08;13.55;;;;;;;23.93;100.00;97041.94;5039199;28;20032;-74
2023/08/04 04:37:33;;;;;;;21.27;12.75;;;;;;;23.90;100.00;97042.31;5073380;28;20087;-76
2023/08/04 04:39:59;;;;;;;30.98;13.93;;;;;;;23.84;100.00;97043.03;5038971;28;20496;-76
2023/08/04 04:42:24;;;;;;;25.70;14.75;;;;;;;23.91;100.00;97038.50;5038731;28;20448;-76
2023/08/04 04:44:49;;;;;;;19.40;13.88;;;;;;;23.81;100.00;97037.94;5073361;28;20081;-75
2023/08/04 04:47:15;;;;;;;16.42;12.95;;;;;;;23.84;100.00;97043.03;5056006;28;20027;-77
2023/08/04 04:49:41;;;;;;;27.88;14.07;;;;;;;23.97;100.00;97048.69;5055427;28;20028;-76
2023/08/04 04:52:07;;;;;;;31.08;16.15;;;;;;;24.02;100.00;97057.19;5073782;28;20020;-76
2023/08/04 04:54:32;;;;;;;21.75;13.85;;;;;;;24.04;100.00;97046.03;5073307;28;20407;-75
2023/08/04 04:56:58;;;;;;;21.50;13.35;;;;;;;24.06;100.00;97050.28;5073059;28;20020;-76
2023/08/04 04:59:23;;;;;;;16.30;12.45;;;;;;;24.22;100.00;97055.56;5054771;28;20016;-76
2023/08/04 05:01:49;;;;;;;19.83;11.88;;;;;;;24.28;100.00;97040.25;5072949;28;20030;-77
2023/08/04 05:04:14;;;;;;;19.83;12.75;;;;;;;24.26;100.00;97043.22;5055087;28;20028;-77
2023/08/04 05:06:40;;;;;;;20.33;12.70;;;;;;;24.26;100.00;97045.94;5054716;28;20024;-76
2023/08/04 05:09:07;;;;;;;18.35;12.75;;;;;;;24.37;100.00;97046.44;5072131;28;20494;-77
2023/08/04 05:11:32;;;;;;;16.63;11.85;;;;;;;24.44;100.00;97055.59;5054943;28;20089;-77
2023/08/04 05:13:58;;;;;;;18.60;11.68;;;;;;;24.62;100.00;97051.38;5054583;28;20021;-76
2023/08/04 05:16:23;;;;;;;26.58;13.23;;;;;;;24.84;100.00;97045.94;5072678;28;20020;-77
2023/08/04 05:18:49;;;;;;;20.17;12.15;;;;;;;24.88;100.00;97041.78;5072997;28;20023;-76
2023/08/04 05:21:14;;;;;;;24.23;12.40;;;;;;;24.95;100.00;97050.91;5055009;28;20031;-77
2023/08/04 05:23:39;;;;;;;22.42;12.50;;;;;;;25.01;100.00;97058.31;5054901;28;20404;-78
2023/08/04 05:26:05;;;;;;;20.98;12.30;;;;;;;25.04;100.00;97063.41;5055112;28;20054;-77
2023/08/04 05:28:32;;;;;;;21.17;12.57;;;;;;;25.30;100.00;97053.50;5072523;28;20112;-77
2023/08/04 05:31:00;;;;;;;19.38;11.23;;;;;;;25.59;100.00;97057.13;5054962;28;20028;-78
2023/08/04 05:33:27;;;;;;;15.25;11.10;;;;;;;26.12;100.00;97061.81;5055134;28;20021;-77
2023/08/04 05:35:53;;;;;;;15.35;11.05;;;;;;;27.17;100.00;97042.06;5054727;28;20024;-78
2023/08/04 05:38:19;;;;;;;17.85;11.73;;;;;;;28.48;100.00;97041.81;5054996;28;20040;-81
2023/08/04 05:40:45;;;;;;;14.05;10.90;;;;;;;29.36;100.00;97042.75;5055053;28;20583;-76
2023/08/04 05:43:11;;;;;;;17.00;11.13;;;;;;;30.19;100.00;97046.78;5054830;28;20415;-78
2023/08/04 05:45:39;;;;;;;17.80;11.55;;;;;;;30.81;100.00;97033.69;5054626;28;20111;-77
2023/08/04 05:48:05;;;;;;;15.13;10.77;;;;;;;31.49;100.00;97032.22;5072124;28;20024;-76
2023/08/04 05:50:31;;;;;;;17.75;12.15;;;;;;;31.59;99.33;97037.16;5054656;28;20032;-77
2023/08/04 05:52:57;;;;;;;24.95;13.63;;;;;;;31.41;100.00;97029.75;5054837;28;20393;-76
2023/08/04 05:55:22;;;;;;;13.27;11.70;;;;;;;31.81;97.52;97020.78;5054258;28;20047;-77
2023/08/04 05:57:49;;;;;;;17.27;12.25;;;;;;;31.84;97.54;97031.38;5072587;28;20147;-76
2023/08/04 06:00:15;;;;;;;18.80;15.68;;;;;;;32.12;96.52;97025.94;5054956;28;20087;-76
2023/08/04 06:02:42;;;;;;;12.98;10.75;;;;;;;33.22;88.92;97015.44;5054390;28;20471;-76
2023/08/04 06:05:08;;;;;;;16.00;11.35;;;;;;;33.63;85.45;97015.03;5072071;28;20028;-76
2023/08/04 06:07:34;;;;;;;21.58;11.35;;;;;;;34.59;76.82;97001.66;5054285;28;20033;-77
2023/08/04 06:09:59;;;;;;;13.25;10.38;;;;;;;34.70;73.60;97009.06;5071628;28;20102;-76
2023/08/04 06:12:25;;;;;;;14.13;11.27;;;;;;;35.00;72.97;97000.19;5053995;28;20070;-77
2023/08/04 06:14:50;;;;;;;22.45;10.40;;;;;;;35.05;70.75;96998.28;5072085;28;20020;-76
2023/08/04 06:17:16;;;;;;;16.65;12.23;;;;;;;34.66;75.60;97010.66;5071468;28;20607;-78
2023/08/04 06:19:43;;;;;;;16.42;11.90;;;;;;;34.84;71.99;97007.53;5053654;28;20090;-78
2023/08/04 06:22:09;;;;;;;19.92;15.63;;;;;;;34.81;73.38;97014.44;5054030;28;20012;-77
2023/08/04 06:24:35;;;;;;;20.83;11.13;;;;;;;35.18;70.03;96999.81;5070174;28;20029;-77
2023/08/04 06:27:03;;;;;;;20.63;12.02;;;;;;;35.34;70.33;97001.66;5054724;28;20073;-78
2023/08/04 06:29:29;;;;;;;15.77;10.45;;;;;;;36.22;64.03;97002.84;5071957;28;20032;-80
2023/08/04 06:31:55;;;;;;;20.55;11.82;;;;;;;37.20;58.77;96993.44;5071937;28;20082;-77
2023/08/04 06:34:20;;;;;;;17.00;11.40;;;;;;;38.18;54.19;96993.13;5037966;28;20035;-76
2023/08/04 06:36:46;;;;;;;16.30;10.90;;;;;;;37.93;54.01;96996.84;5053865;28;20119;-76
2023/08/04 06:39:12;;;;;;;26.08;11.45;;;;;;;37.83;54.71;96994.03;5053905;28;20044;-77
2023/08/04 06:41:37;;;;;;;13.10;10.18;;;;;;;38.77;51.35;96988.41;5053052;28;20017;-77
2023/08/04 06:44:03;;;;;;;11.38;10.18;;;;;;;37.01;55.04;96988.69;5087492;28;20021;-76
2023/08/04 06:46:29;;;;;;;12.65;10.48;;;;;;;35.94;61.87;96994.84;5053649;28;20472;-77
2023/08/04 06:48:54;;;;;;;12.50;9.80;;;;;;;36.67;59.16;96993.88;5053884;28;20495;-77
2023/08/04 06:54:03;;;;;;;13.90;9.55;;;;;;;38.14;53.69;96987.28;5071711;28;20028;-77
2023/08/04 06:56:29;;;;;;;13.32;9.77;;;;;;;38.63;51.04;96984.59;5086975;28;20029;-77
2023/08/04 06:58:54;;;;;;;16.17;10.48;;;;;;;39.01;49.65;96977.38;5071602;28;20384;-76
2023/08/04 07:01:20;;;;;;;11.82;9.52;;;;;;;39.84;46.82;96974.53;5071335;28;20110;-77
2023/08/04 07:03:47;;;;;;;15.10;9.32;;;;;;;39.32;46.35;96962.06;5086689;28;20111;-77
2023/08/04 07:06:13;;;;;;;15.40;9.95;;;;;;;39.13;47.25;96963.06;5071218;28;20032;-78
2023/08/04 07:08:40;;;;;;;22.02;11.40;;;;;;;39.04;46.95;96962.81;5071017;28;20127;-77
2023/08/04 07:11:15;;;;;;;16.60;9.88;;;;;;;39.64;45.62;96967.13;5036637;28;20035;-77
2023/08/04 07:13:40;;;;;;;16.23;10.52;;;;;;;39.49;45.38;96970.06;5070802;28;20109;-77
2023/08/04 07:16:06;;;;;;;12.82;10.40;;;;;;;39.52;45.67;96964.72;5071117;28;20063;-77
2023/08/04 07:18:31;;;;;;;14.88;9.57;;;;;;;39.43;44.78;96957.22;5070878;28;20128;-77
2023/08/04 07:21:06;;;;;;;14.13;10.07;;;;;;;38.63;46.88;96967.81;5071285;28;20016;-77
2023/08/04 07:23:32;;;;;;;13.23;9.30;;;;;;;38.70;46.94;96964.69;5053809;28;20037;-76
2023/08/04 07:25:58;;;;;;;11.05;9.35;;;;;;;39.35;44.63;96961.47;5070169;28;20063;-76
2023/08/04 07:28:23;;;;;;;14.95;9.35;;;;;;;40.02;44.01;96956.97;5071374;28;20103;-76
2023/08/04 07:30:49;;;;;;;22.92;10.13;;;;;;;40.71;42.91;96950.78;5052973;28;20476;-76
2023/08/04 07:33:14;;;;;;;37.08;12.30;;;;;;;41.42;41.47;96952.56;5053334;28;20024;-77
2023/08/04 07:35:40;;;;;;;20.65;9.70;;;;;;;41.46;40.48;96953.63;5053421;28;20470;-76
2023/08/04 07:38:05;;;;;;;12.07;9.77;;;;;;;41.70;39.53;96943.06;5071320;28;20075;-77
2023/08/04 07:40:31;;;;;;;13.57;9.80;;;;;;;41.03;40.40;96950.94;5053033;28;20024;-76
2023/08/04 07:42:56;;;;;;;13.13;9.60;;;;;;;40.26;41.17;96941.00;5086629;28;20024;-77
2023/08/04 07:45:22;;;;;;;11.68;9.63;;;;;;;39.75;42.89;96942.69;5071305;28;20408;-76
2023/08/04 07:47:47;;;;;;;13.07;9.85;;;;;;;40.25;41.67;96944.09;5052775;28;20111;-77
2023/08/04 07:50:13;;;;;;;20.13;9.82;;;;;;;40.89;41.01;96944.34;5070823;28;20102;-77
2023/08/04 07:52:38;;;;;;;16.63;9.60;;;;;;;42.31;38.69;96939.13;5055596;28;20028;-76
2023/08/04 07:55:04;;;;;;;10.77;8.68;;;;;;;42.91;37.56;96929.38;5057481;28;20070;-76
2023/08/04 07:57:30;;;;;;;13.80;9.00;;;;;;;43.11;36.91;96931.75;5075027;28;20415;-77
2023/08/04 07:59:55;;;;;;;19.25;10.48;;;;;;;44.09;35.60;96923.28;5074694;28;20446;-76
2023/08/04 08:02:21;;;;;;;76.25;18.73;;;;;;;43.94;35.13;96920.91;5070085;28;20101;-77
2023/08/04 08:04:46;;;;;;;24.75;10.93;;;;;;;43.91;35.32;96927.19;5071640;28;20480;-77
2023/08/04 08:07:12;;;;;;;13.73;9.30;;;;;;;43.28;35.80;96927.41;5075078;28;20032;-77
2023/08/04 08:09:37;;;;;;;13.65;9.07;;;;;;;44.41;33.06;96920.13;5074286;28;20111;-76
2023/08/04 08:12:03;;;;;;;25.95;8.98;;;;;;;44.63;33.33;96914.41;5072047;28;20029;-77
2023/08/04 08:14:28;;;;;;;18.52;9.15;;;;;;;45.71;32.06;96917.13;5074801;28;20503;-77
2023/08/04 08:16:57;;;;;;;25.92;8.80;;;;;;;46.78;30.59;96923.38;5074470;28;20139;-78
2023/08/04 08:19:23;;;;;;;16.27;8.98;;;;;;;46.70;31.19;96927.03;5040025;28;20381;-77
2023/08/04 08:21:48;;;;;;;16.50;8.43;;;;;;;47.10;30.27;96910.44;5070155;28;20027;-77
2023/08/04 08:24:14;;;;;;;14.52;9.43;;;;;;;46.95;29.95;96916.75;5095155;28;20034;-77
2023/08/04 08:26:39;;;;;;;9.73;7.43;;;;;;;45.80;30.29;96911.44;5094592;28;20020;-77
2023/08/04 08:29:06;;;;;;;15.10;7.55;;;;;;;46.66;29.02;96908.25;5079716;28;20051;-77
2023/08/04 08:31:31;;;;;;;17.70;8.00;;;;;;;46.06;29.04;96903.72;5056678;28;20028;-76
2023/08/04 08:33:58;;;;;;;11.95;7.32;;;;;;;46.55;28.62;96899.31;5056627;28;20021;-77
2023/08/04 08:36:24;;;;;;;10.77;7.53;;;;;;;47.38;27.93;96898.59;5055913;28;20028;-76
2023/08/04 08:38:50;;;;;;;8.88;6.65;;;;;;;46.74;27.76;96898.88;5052764;28;20111;-76
2023/08/04 08:41:15;;;;;;;13.02;6.72;;;;;;;47.06;26.98;96889.66;5071061;28;20467;-76
2023/08/04 08:43:41;;;;;;;10.38;6.60;;;;;;;47.57;25.83;96881.88;5050564;28;20092;-76
2023/08/04 08:46:07;;;;;;;8.35;7.03;;;;;;;46.43;27.13;96889.91;5071165;28;20431;-76
2023/08/04 08:48:36;;;;;;;9.43;7.43;;;;;;;46.33;27.85;96891.91;5033222;28;20016;-76
2023/08/04 08:51:08;;;;;;;8.88;7.20;;;;;;;45.69;28.54;96884.69;5055993;28;20403;-76
2023/08/04 08:53:34;;;;;;;8.30;7.40;;;;;;;46.69;27.61;96885.75;5052655;28;20082;-75
2023/08/04 08:56:00;;;;;;;14.88;8.10;;;;;;;47.24;27.17;96881.84;5043070;28;20029;-77
2023/08/04 08:58:28;;;;;;;14.73;7.78;;;;;;;48.47;26.20;96882.66;5052412;28;20040;-77
2023/08/04 09:00:53;;;;;;;10.43;6.82;;;;;;;47.66;26.10;96868.44;5032408;28;20043;-77
2023/08/04 09:03:19;;;;;;;7.35;6.65;;;;;;;48.49;25.43;96873.78;5048567;28;20028;-78
2023/08/04 09:05:45;;;;;;;7.88;7.07;;;;;;;48.24;26.04;96868.09;5052372;28;20040;-77
2023/08/04 09:08:10;;;;;;;8.82;6.88;;;;;;;48.63;25.31;96871.44;5038678;28;20037;-78
2023/08/04 09:10:37;;;;;;;11.38;7.13;;;;;;;48.32;25.20;96858.66;5072098;28;20049;-78
2023/08/04 09:13:09;;;;;;;7.30;6.60;;;;;;;49.09;24.54;96864.34;5053174;28;20028;-79
2023/08/04 09:15:45;;;;;;;9.25;7.88;;;;;;;48.55;25.30;96855.31;5052318;28;20029;-79
2023/08/04 09:18:24;;;;;;;8.63;7.20;;;;;;;49.06;24.79;96854.53;5056366;28;20048;-77
2023/08/04 09:21:00;;;;;;;7.80;6.35;;;;;;;49.41;23.68;96849.06;5038538;28;20116;-78
2023/08/04 09:23:30;;;;;;;7.78;6.97;;;;;;;49.69;23.95;96849.06;5055909;28;20559;-79
2023/08/04 09:25:56;;;;;;;10.27;6.50;;;;;;;49.95;24.37;96857.91;5072762;28;20438;-78
2023/08/04 09:28:22;;;;;;;8.20;6.63;;;;;;;50.09;23.88;96840.41;5040860;28;20036;-79
2023/08/04 09:31:05;;;;;;;9.25;6.88;;;;;;;51.13;23.41;96849.06;5041451;28;20480;-80
2023/08/04 09:33:34;;;;;;;14.43;7.20;;;;;;;50.36;23.81;96840.28;5054592;28;20031;-79
2023/08/04 09:36:08;;;;;;;8.52;7.40;;;;;;;49.13;24.74;96836.88;5088792;28;20025;-78
2023/08/04 09:38:35;;;;;;;9.35;7.13;;;;;;;48.61;25.27;96837.69;5034580;28;20042;-78
2023/08/04 09:41:01;;;;;;;8.07;7.28;;;;;;;47.80;25.92;96832.06;5055184;28;20024;-78
2023/08/04 09:43:27;;;;;;;8.63;6.93;;;;;;;48.84;25.24;96829.47;5072780;28;20099;-79
2023/08/04 09:46:03;;;;;;;8.68;7.43;;;;;;;49.61;24.71;96828.09;5072526;28;20036;-80
2023/08/04 09:48:28;;;;;;;10.57;7.15;;;;;;;50.23;23.77;96830.19;5041786;28;20017;-79
2023/08/04 09:51:07;;;;;;;8.13;6.78;;;;;;;49.72;24.39;96825.56;5047892;28;20404;-79
2023/08/04 09:53:42;;;;;;;10.25;6.93;;;;;;;49.62;24.06;96815.56;5064298;28;20021;-79
2023/08/04 09:56:08;;;;;;;11.07;7.90;;;;;;;49.03;24.77;96823.97;5056097;28;20032;-79
2023/08/04 09:58:34;;;;;;;10.52;7.30;;;;;;;48.85;24.48;96816.91;5073716;28;20488;-79
2023/08/04 10:01:01;;;;;;;9.30;7.18;;;;;;;49.14;24.26;96816.59;5039241;28;20051;-78
2023/08/04 10:03:28;;;;;;;18.70;7.15;;;;;;;50.48;23.24;96816.56;5056636;28;20024;-78
2023/08/04 10:05:55;;;;;;;12.50;6.88;;;;;;;49.79;23.83;96817.22;5057087;28;20024;-78
2023/08/04 10:08:20;;;;;;;9.25;7.90;;;;;;;49.88;23.69;96806.47;5040088;28;20036;-79
2023/08/04 10:10:46;;;;;;;7.72;6.93;;;;;;;49.46;24.23;96808.16;5074413;28;20032;-78
2023/08/04 10:13:12;;;;;;;16.10;7.30;;;;;;;50.13;23.79;96807.13;5057871;28;20549;-79
2023/08/04 10:15:38;;;;;;;7.15;6.50;;;;;;;50.40;23.42;96812.72;5053583;28;20029;-79
2023/08/04 10:18:04;;;;;;;12.43;7.30;;;;;;;51.53;22.94;96810.75;5051818;28;20079;-78
2023/08/04 10:20:33;;;;;;;10.32;6.70;;;;;;;51.37;22.77;96805.97;5074621;28;20060;-78
2023/08/04 10:22:58;;;;;;;8.35;7.55;;;;;;;51.57;22.52;96808.75;5049367;28;20086;-79
2023/08/04 10:25:24;;;;;;;7.95;6.85;;;;;;;51.57;21.94;96803.06;5050428;28;20477;-79
2023/08/04 10:27:50;;;;;;;7.90;6.93;;;;;;;51.69;22.30;96806.59;5067162;28;20031;-78
2023/08/04 10:30:16;;;;;;;9.13;7.28;;;;;;;53.34;21.38;96813.31;5049374;28;20029;-79
2023/08/04 10:32:43;;;;;;;9.73;6.88;;;;;;;52.52;21.51;96798.25;5069277;28;20163;-79
2023/08/04 10:35:18;;;;;;;9.48;6.82;;;;;;;50.48;23.09;96804.34;5052016;28;20028;-80
2023/08/04 10:37:53;;;;;;;7.60;6.90;;;;;;;50.91;23.39;96792.72;5037812;28;20044;-79
2023/08/04 10:40:30;;;;;;;8.75;7.10;;;;;;;49.68;23.57;96796.19;5074037;28;20044;-78
2023/08/04 10:42:58;;;;;;;9.63;7.05;;;;;;;51.62;22.48;96783.63;5050992;28;20028;-79
2023/08/04 10:45:55;;;;;;;8.07;7.38;;;;;;;51.81;21.82;96779.91;5048222;28;20024;-80
2023/08/04 10:48:21;;;;;;;7.63;6.93;;;;;;;52.62;21.33;96789.81;5054834;28;20056;-79
2023/08/04 10:50:50;;;;;;;11.13;7.22;;;;;;;53.07;20.81;96785.16;5038846;28;20074;-78
2023/08/04 10:53:16;;;;;;;9.02;7.40;;;;;;;53.53;20.41;96773.03;5051143;28;20021;-78
2023/08/04 10:55:52;;;;;;;10.88;7.75;;;;;;;54.13;20.15;96777.72;5051553;28;20521;-79
2023/08/04 10:58:18;;;;;;;7.85;7.05;;;;;;;54.89;19.99;96770.06;5071017;28;20029;-79
2023/08/04 11:00:43;;;;;;;8.40;7.38;;;;;;;52.55;20.94;96758.25;5048497;28;20020;-79
2023/08/04 11:03:37;;;;;;;7.90;7.20;;;;;;;52.88;21.13;96757.50;5051661;28;20063;-78
2023/08/04 11:06:03;;;;;;;9.75;7.25;;;;;;;52.72;21.15;96754.03;5069935;28;20033;-78
2023/08/04 11:08:29;;;;;;;7.25;6.55;;;;;;;53.26;21.03;96762.06;5033166;28;20072;-79
2023/08/04 11:10:56;;;;;;;11.52;7.00;;;;;;;52.86;20.98;96759.91;5047963;28;20117;-77
2023/08/04 11:13:23;;;;;;;7.10;6.43;;;;;;;52.86;21.07;96751.34;5053289;28;20407;-79
2023/08/04 11:15:49;;;;;;;7.72;7.00;;;;;;;52.13;21.50;96747.00;5049902;28;20029;-78
2023/08/04 11:18:20;;;;;;;10.95;6.38;;;;;;;52.04;21.44;96748.47;5052487;28;20029;-78